createdAt,value
2023-01-29T00:00:39.875Z,85.21
2023-01-29T00:03:28.989Z,85.19
2023-01-29T00:05:57.885Z,85.16
2023-01-29T00:08:27.595Z,85.10
2023-01-29T00:11:02.931Z,85.34
2023-01-29T00:13:32.363Z,85.17
2023-01-29T00:16:02.006Z,84.78
2023-01-29T00:18:31.955Z,85.25
2023-01-29T00:21:00.657Z,85.18
2023-01-29T00:23:29.407Z,85.25
2023-01-29T00:26:00.656Z,85.10
2023-01-29T00:28:29.451Z,85.34
2023-01-29T00:30:58.559Z,85.09
2023-01-29T00:33:29.703Z,85.42
2023-01-29T00:35:58.552Z,85.41
2023-01-29T00:38:27.714Z,85.34
2023-01-29T00:41:15.341Z,85.12
2023-01-29T00:44:03.570Z,85.19
2023-01-29T00:46:32.616Z,85.10
2023-01-29T00:49:01.740Z,84.90
2023-01-29T00:51:31.378Z,85.08
2023-01-29T00:54:03.071Z,84.81
2023-01-29T00:56:32.836Z,84.77
2023-01-29T00:59:01.485Z,84.51
2023-01-29T01:01:49.335Z,84.66
2023-01-29T01:04:18.046Z,84.82
2023-01-29T01:06:46.877Z,84.86
2023-01-29T01:09:34.370Z,84.46
2023-01-29T01:12:04.047Z,84.75
2023-01-29T01:14:36.724Z,84.87
2023-01-29T01:17:05.819Z,85.06
2023-01-29T01:19:34.638Z,84.96
2023-01-29T01:22:05.680Z,84.95
2023-01-29T01:24:34.699Z,84.84
2023-01-29T01:27:03.742Z,84.42
2023-01-29T01:29:32.580Z,84.50
2023-01-29T01:32:01.859Z,84.56
2023-01-29T01:34:30.511Z,84.92
2023-01-29T01:36:59.275Z,84.61
2023-01-29T01:39:28.644Z,84.61
2023-01-29T01:41:58.066Z,84.24
2023-01-29T01:45:01.622Z,84.50
2023-01-29T01:47:48.415Z,84.40
2023-01-29T01:50:36.107Z,84.56
2023-01-29T01:53:09.396Z,84.61
2023-01-29T01:55:44.884Z,84.79
2023-01-29T01:58:23.403Z,84.53
2023-01-29T02:00:53.079Z,84.51
2023-01-29T02:03:42.760Z,84.56
2023-01-29T02:06:30.759Z,84.61
2023-01-29T02:09:24.653Z,84.28
2023-01-29T02:11:53.771Z,84.28
2023-01-29T02:14:23.577Z,84.17
2023-01-29T02:16:52.211Z,84.37
2023-01-29T02:19:42.158Z,84.26
2023-01-29T02:22:26.086Z,84.28
2023-01-29T02:25:10.208Z,84.06
2023-01-29T02:28:12.669Z,83.82
2023-01-29T02:31:19.244Z,84.04
2023-01-29T02:34:17.253Z,84.15
2023-01-29T02:37:03.933Z,84.22
2023-01-29T02:39:48.480Z,84.10
2023-01-29T02:42:20.387Z,84.08
2023-01-29T02:45:01.799Z,84.01
2023-01-29T02:47:47.558Z,84.03
2023-01-29T02:50:37.699Z,83.81
2023-01-29T02:53:15.534Z,83.69
2023-01-29T02:55:57.941Z,83.98
2023-01-29T02:58:26.808Z,83.79
2023-01-29T03:01:01.144Z,83.90
2023-01-29T03:03:37.153Z,83.70
2023-01-29T03:06:33.325Z,83.76
2023-01-29T03:09:08.602Z,83.69
2023-01-29T03:11:45.139Z,83.83
2023-01-29T03:15:03.835Z,83.79
2023-01-29T03:17:38.817Z,83.65
2023-01-29T03:20:15.667Z,83.87
2023-01-29T03:22:52.252Z,83.76
2023-01-29T03:25:44.064Z,83.88
2023-01-29T03:28:36.836Z,84.00
2023-01-29T03:31:28.979Z,83.82
2023-01-29T03:34:06.026Z,83.81
2023-01-29T03:37:19.887Z,83.81
2023-01-29T03:39:49.090Z,83.37
2023-01-29T03:42:24.333Z,83.60
2023-01-29T03:45:28.357Z,83.57
2023-01-29T03:48:11.252Z,83.58
2023-01-29T03:51:01.075Z,83.35
2023-01-29T03:53:47.873Z,83.32
2023-01-29T03:56:41.113Z,83.55
2023-01-29T03:59:38.912Z,83.45
2023-01-29T04:02:32.213Z,83.55
2023-01-29T04:05:12.140Z,83.32
2023-01-29T04:07:55.406Z,83.43
2023-01-29T04:10:28.429Z,83.16
2023-01-29T04:13:02.677Z,83.44
2023-01-29T04:15:37.677Z,83.31
2023-01-29T04:18:07.159Z,83.17
2023-01-29T04:20:45.219Z,83.16
2023-01-29T04:23:24.023Z,83.20
2023-01-29T04:26:22.309Z,83.24
2023-01-29T04:29:17.216Z,82.88
2023-01-29T04:31:58.090Z,82.92
2023-01-29T04:34:37.118Z,83.18
2023-01-29T04:37:13.455Z,83.17
2023-01-29T04:39:45.776Z,83.10
2023-01-29T04:42:36.209Z,82.74
2023-01-29T04:45:31.120Z,82.91
2023-01-29T04:48:20.614Z,82.99
2023-01-29T04:51:13.285Z,82.73
2023-01-29T04:53:49.006Z,83.08
2023-01-29T04:56:29.840Z,82.55
2023-01-29T04:59:17.200Z,82.66
2023-01-29T05:01:47.895Z,82.69
2023-01-29T05:04:20.513Z,82.73
2023-01-29T05:06:51.098Z,82.46
2023-01-29T05:09:20.285Z,82.38
2023-01-29T05:11:50.877Z,82.86
2023-01-29T05:14:21.371Z,82.60
2023-01-29T05:16:54.286Z,82.49
2023-01-29T05:19:23.219Z,82.82
2023-01-29T05:21:52.358Z,82.39
2023-01-29T05:24:24.501Z,82.56
2023-01-29T05:27:13.743Z,82.59
2023-01-29T05:29:46.711Z,82.42
2023-01-29T05:32:16.529Z,82.42
2023-01-29T05:34:45.162Z,82.18
2023-01-29T05:37:14.037Z,82.32
2023-01-29T05:39:43.170Z,82.25
2023-01-29T05:42:11.993Z,82.25
2023-01-29T05:44:40.709Z,82.04
2023-01-29T05:47:09.606Z,82.17
2023-01-29T05:49:38.885Z,82.27
2023-01-29T05:52:07.810Z,82.35
2023-01-29T05:54:36.831Z,82.10
2023-01-29T05:57:05.507Z,82.06
2023-01-29T05:59:34.733Z,82.35
2023-01-29T06:02:03.701Z,82.24
2023-01-29T06:04:32.406Z,82.14
2023-01-29T06:07:04.021Z,82.05
2023-01-29T06:09:33.058Z,82.17
2023-01-29T06:12:01.862Z,82.05
2023-01-29T06:14:30.557Z,81.98
2023-01-29T06:17:02.020Z,81.66
2023-01-29T06:19:30.935Z,81.81
2023-01-29T06:21:59.797Z,81.85
2023-01-29T06:24:30.425Z,81.93
2023-01-29T06:26:59.281Z,81.60
2023-01-29T06:29:28.290Z,81.72
2023-01-29T06:31:57.361Z,81.90
2023-01-29T06:34:26.139Z,81.86
2023-01-29T06:36:55.006Z,81.79
2023-01-29T06:39:23.918Z,81.83
2023-01-29T06:41:52.642Z,81.66
2023-01-29T06:44:21.761Z,81.73
2023-01-29T06:46:50.952Z,81.66
2023-01-29T06:49:21.777Z,81.46
2023-01-29T06:51:50.434Z,81.54
2023-01-29T06:54:19.595Z,81.45
2023-01-29T06:56:48.276Z,81.57
2023-01-29T06:59:17.249Z,81.44
2023-01-29T07:01:46.655Z,81.82
2023-01-29T07:04:15.463Z,81.80
2023-01-29T07:06:45.444Z,81.55
2023-01-29T07:09:14.885Z,81.50
2023-01-29T07:11:43.506Z,81.60
2023-01-29T07:14:12.236Z,81.47
2023-01-29T07:16:41.461Z,81.24
2023-01-29T07:19:10.657Z,81.21
2023-01-29T07:21:39.531Z,81.42
2023-01-29T07:24:08.810Z,81.68
2023-01-29T07:26:37.690Z,81.55
2023-01-29T07:29:06.474Z,81.53
2023-01-29T07:31:36.099Z,81.54
2023-01-29T07:34:05.137Z,81.39
2023-01-29T07:36:34.036Z,81.53
2023-01-29T07:39:02.930Z,81.48
2023-01-29T07:41:31.681Z,81.45
2023-01-29T07:44:01.531Z,81.47
2023-01-29T07:46:30.549Z,81.24
2023-01-29T07:48:59.781Z,81.37
2023-01-29T07:51:28.425Z,81.50
2023-01-29T07:53:57.271Z,81.35
2023-01-29T07:56:26.268Z,81.50
2023-01-29T07:58:55.403Z,81.63
2023-01-29T08:01:24.569Z,81.24
2023-01-29T08:03:53.533Z,81.57
2023-01-29T08:06:22.449Z,81.68
2023-01-29T08:08:52.501Z,81.65
2023-01-29T08:11:21.219Z,81.36
2023-01-29T08:13:50.143Z,81.20
2023-01-29T08:16:19.049Z,81.28
2023-01-29T08:18:49.092Z,81.54
2023-01-29T08:21:18.169Z,81.38
2023-01-29T08:23:47.218Z,81.47
2023-01-29T08:26:15.823Z,81.64
2023-01-29T08:28:45.051Z,81.39
2023-01-29T08:31:16.078Z,81.57
2023-01-29T08:33:44.697Z,81.27
2023-01-29T08:36:13.607Z,81.28
2023-01-29T08:38:42.559Z,81.58
2023-01-29T08:41:11.159Z,81.70
2023-01-29T08:43:40.988Z,81.55
2023-01-29T08:46:09.821Z,81.55
2023-01-29T08:48:38.699Z,81.60
2023-01-29T08:51:08.110Z,81.64
2023-01-29T08:53:37.076Z,81.63
2023-01-29T08:56:06.068Z,81.50
2023-01-29T08:58:35.820Z,81.76
2023-01-29T09:01:10.092Z,81.30
2023-01-29T09:03:41.675Z,81.46
2023-01-29T09:06:12.677Z,81.34
2023-01-29T09:08:42.091Z,80.83
2023-01-29T09:11:11.595Z,80.84
2023-01-29T09:13:40.439Z,81.20
2023-01-29T09:16:10.842Z,81.16
2023-01-29T09:18:39.771Z,81.50
2023-01-29T09:21:08.842Z,81.48
2023-01-29T09:23:37.752Z,81.45
2023-01-29T09:26:09.559Z,81.74
2023-01-29T09:28:38.998Z,81.62
2023-01-29T09:31:07.727Z,81.60
2023-01-29T09:33:36.922Z,81.54
2023-01-29T09:36:06.443Z,81.73
2023-01-29T09:38:35.084Z,81.68
2023-01-29T09:41:15.799Z,81.62
2023-01-29T09:44:02.864Z,81.47
2023-01-29T09:46:41.247Z,81.46
2023-01-29T09:49:24.019Z,81.59
2023-01-29T09:52:05.132Z,81.36
2023-01-29T09:55:04.963Z,81.49
2023-01-29T09:57:47.506Z,81.54
2023-01-29T10:00:42.525Z,81.42
2023-01-29T10:03:29.608Z,81.32
2023-01-29T10:06:20.667Z,81.51
2023-01-29T10:09:22.655Z,81.65
2023-01-29T10:12:09.941Z,81.75
2023-01-29T10:14:38.944Z,81.63
2023-01-29T10:17:15.667Z,81.36
2023-01-29T10:19:50.771Z,81.24
2023-01-29T10:22:34.728Z,81.35
2023-01-29T10:25:14.705Z,81.53
2023-01-29T10:27:50.459Z,81.68
2023-01-29T10:30:19.286Z,81.07
2023-01-29T10:32:49.930Z,81.18
2023-01-29T10:36:01.042Z,81.27
2023-01-29T10:38:44.677Z,81.28
2023-01-29T10:41:41.216Z,81.25
2023-01-29T10:44:26.027Z,81.35
2023-01-29T10:47:07.043Z,81.41
2023-01-29T10:50:00.530Z,81.43
2023-01-29T10:53:14.239Z,81.02
2023-01-29T10:56:23.360Z,81.31
2023-01-29T10:58:57.051Z,81.34
2023-01-29T11:01:27.173Z,81.11
2023-01-29T11:04:01.472Z,81.26
2023-01-29T11:06:35.790Z,81.48
2023-01-29T11:09:04.602Z,81.42
2023-01-29T11:12:11.180Z,81.07
2023-01-29T11:14:47.077Z,81.32
2023-01-29T11:17:24.773Z,81.37
2023-01-29T11:19:56.201Z,81.34
2023-01-29T11:22:30.565Z,81.43
2023-01-29T11:25:20.611Z,80.95
2023-01-29T11:27:57.695Z,81.12
2023-01-29T11:30:28.111Z,81.00
2023-01-29T11:33:08.571Z,81.08
2023-01-29T11:35:37.363Z,81.01
2023-01-29T11:38:22.281Z,80.82
2023-01-29T11:40:51.839Z,81.16
2023-01-29T11:43:28.133Z,81.07
2023-01-29T11:46:02.003Z,81.08
2023-01-29T11:48:50.656Z,81.24
2023-01-29T11:51:26.271Z,80.98
2023-01-29T11:54:02.594Z,81.07
2023-01-29T11:56:43.167Z,81.08
2023-01-29T11:59:48.747Z,81.00
2023-01-29T12:02:28.528Z,80.92
2023-01-29T12:05:02.231Z,81.05
2023-01-29T12:07:32.089Z,81.03
2023-01-29T12:10:00.877Z,81.09
2023-01-29T12:12:30.331Z,81.12
2023-01-29T12:15:20.444Z,81.08
2023-01-29T12:17:58.113Z,80.95
2023-01-29T12:20:34.805Z,80.92
2023-01-29T12:23:22.872Z,80.97
2023-01-29T12:26:01.063Z,80.94
2023-01-29T12:28:58.414Z,81.01
2023-01-29T12:31:27.116Z,81.01
2023-01-29T12:34:15.807Z,80.91
2023-01-29T12:36:54.812Z,81.08
2023-01-29T12:39:24.063Z,80.45
2023-01-29T12:42:23.334Z,80.40
2023-01-29T12:44:52.527Z,80.40
2023-01-29T12:47:29.531Z,80.48
2023-01-29T12:50:05.888Z,80.30
2023-01-29T12:52:39.925Z,80.17
2023-01-29T12:55:12.057Z,80.13
2023-01-29T12:57:51.353Z,79.92
2023-01-29T13:00:27.666Z,80.21
2023-01-29T13:03:17.669Z,80.15
2023-01-29T13:06:00.946Z,80.25
2023-01-29T13:08:41.433Z,80.30
2023-01-29T13:11:23.242Z,80.27
2023-01-29T13:13:57.840Z,80.05
2023-01-29T13:16:33.008Z,79.98
2023-01-29T13:19:37.180Z,79.88
2023-01-29T13:22:32.557Z,80.08
2023-01-29T13:25:05.400Z,79.90
2023-01-29T13:27:37.098Z,79.99
2023-01-29T13:30:07.078Z,80.17
2023-01-29T13:32:36.772Z,79.82
2023-01-29T13:35:14.928Z,79.81
2023-01-29T13:37:55.365Z,79.81
2023-01-29T13:40:26.211Z,79.82
2023-01-29T13:42:59.000Z,80.16
2023-01-29T13:45:45.891Z,79.97
2023-01-29T13:48:29.006Z,79.65
2023-01-29T13:51:02.492Z,79.61
2023-01-29T13:53:41.138Z,79.86
2023-01-29T13:56:50.404Z,79.59
2023-01-29T13:59:42.313Z,79.49
2023-01-29T14:02:23.742Z,79.66
2023-01-29T14:05:12.783Z,79.53
2023-01-29T14:07:45.098Z,79.41
2023-01-29T14:10:18.747Z,79.52
2023-01-29T14:12:48.733Z,79.38
2023-01-29T14:15:24.687Z,79.40
2023-01-29T14:18:18.748Z,79.54
2023-01-29T14:20:47.865Z,79.53
2023-01-29T14:23:31.930Z,79.62
2023-01-29T14:26:03.013Z,79.70
2023-01-29T14:28:35.047Z,79.69
2023-01-29T14:31:07.761Z,79.88
2023-01-29T14:33:41.859Z,79.47
2023-01-29T14:36:16.154Z,79.75
2023-01-29T14:38:52.553Z,79.64
2023-01-29T14:41:29.207Z,79.58
2023-01-29T14:44:39.925Z,79.55
2023-01-29T14:47:19.621Z,79.50
2023-01-29T14:49:59.350Z,79.71
2023-01-29T14:52:36.300Z,79.80
2023-01-29T14:55:11.781Z,79.45
2023-01-29T14:57:42.224Z,79.37
2023-01-29T15:00:22.259Z,79.56
2023-01-29T15:03:01.411Z,79.50
2023-01-29T15:05:38.407Z,79.57
2023-01-29T15:08:20.368Z,78.84
2023-01-29T15:11:14.240Z,79.27
2023-01-29T15:13:51.139Z,79.32
2023-01-29T15:16:32.762Z,79.17
2023-01-29T15:19:22.310Z,79.17
2023-01-29T15:22:12.375Z,78.93
2023-01-29T15:24:43.035Z,79.14
2023-01-29T15:27:17.443Z,79.22
2023-01-29T15:30:03.275Z,79.20
2023-01-29T15:32:36.578Z,79.32
2023-01-29T15:35:10.425Z,79.35
2023-01-29T15:37:40.513Z,79.28
2023-01-29T15:40:16.241Z,79.40
2023-01-29T15:42:49.080Z,79.39
2023-01-29T15:45:29.509Z,79.12
2023-01-29T15:48:07.494Z,79.12
2023-01-29T15:50:41.956Z,79.03
2023-01-29T15:53:20.285Z,79.27
2023-01-29T15:55:52.008Z,79.03
2023-01-29T15:58:30.833Z,79.10
2023-01-29T16:01:02.619Z,78.85
2023-01-29T16:03:33.773Z,78.95
2023-01-29T16:06:03.161Z,78.97
2023-01-29T16:08:33.504Z,78.82
2023-01-29T16:11:05.456Z,79.08
2023-01-29T16:13:37.575Z,79.27
2023-01-29T16:16:21.285Z,78.89
2023-01-29T16:19:00.076Z,78.80
2023-01-29T16:21:37.682Z,79.06
2023-01-29T16:24:16.210Z,79.01
2023-01-29T16:26:50.054Z,79.16
2023-01-29T16:29:32.083Z,79.19
2023-01-29T16:32:03.462Z,78.87
2023-01-29T16:34:39.100Z,79.06
2023-01-29T16:37:25.724Z,79.14
2023-01-29T16:39:55.024Z,78.84
2023-01-29T16:42:31.684Z,78.86
2023-01-29T16:45:05.497Z,78.93
2023-01-29T16:47:41.703Z,78.95
2023-01-29T16:50:46.263Z,79.03
2023-01-29T16:53:23.769Z,78.95
2023-01-29T16:55:53.132Z,78.90
2023-01-29T16:58:28.347Z,79.00
2023-01-29T17:01:01.979Z,79.01
2023-01-29T17:03:34.424Z,79.09
2023-01-29T17:06:11.376Z,78.82
2023-01-29T17:08:43.657Z,78.79
2023-01-29T17:11:23.571Z,78.97
2023-01-29T17:13:57.166Z,79.03
2023-01-29T17:16:32.244Z,78.97
2023-01-29T17:19:02.384Z,78.82
2023-01-29T17:21:31.204Z,78.84
2023-01-29T17:23:59.832Z,78.79
2023-01-29T17:26:31.386Z,78.70
2023-01-29T17:29:00.950Z,78.91
2023-01-29T17:31:29.646Z,78.89
2023-01-29T17:33:58.679Z,78.83
2023-01-29T17:36:27.663Z,78.77
2023-01-29T17:38:56.283Z,78.72
2023-01-29T17:41:30.831Z,78.55
2023-01-29T17:43:59.633Z,78.74
2023-01-29T17:46:28.318Z,78.52
2023-01-29T17:48:57.112Z,78.52
2023-01-29T17:51:25.801Z,78.28
2023-01-29T17:53:54.402Z,78.39
2023-01-29T17:56:30.282Z,78.30
2023-01-29T17:58:59.406Z,78.43
2023-01-29T18:01:28.413Z,78.49
2023-01-29T18:04:04.859Z,78.75
2023-01-29T18:06:46.749Z,78.61
2023-01-29T18:09:28.662Z,78.53
2023-01-29T18:12:13.045Z,78.62
2023-01-29T18:14:52.752Z,78.56
2023-01-29T18:17:33.255Z,78.63
2023-01-29T18:20:33.316Z,78.52
2023-01-29T18:23:17.060Z,78.60
2023-01-29T18:25:57.642Z,78.57
2023-01-29T18:28:37.795Z,78.62
2023-01-29T18:31:15.409Z,78.43
2023-01-29T18:33:57.373Z,78.57
2023-01-29T18:36:36.761Z,78.54
2023-01-29T18:39:24.486Z,78.42
2023-01-29T18:42:03.747Z,78.47
2023-01-29T18:44:40.568Z,78.45
2023-01-29T18:47:10.221Z,78.43
2023-01-29T18:49:40.121Z,78.05
2023-01-29T18:52:08.928Z,78.18
2023-01-29T18:54:37.687Z,78.32
2023-01-29T18:57:13.767Z,78.24
2023-01-29T18:59:43.891Z,78.05
2023-01-29T19:02:17.725Z,77.95
2023-01-29T19:04:47.672Z,77.96
2023-01-29T19:07:16.681Z,78.21
2023-01-29T19:09:46.878Z,78.32
2023-01-29T19:12:23.635Z,78.32
2023-01-29T19:14:52.952Z,78.40
2023-01-29T19:17:21.727Z,78.13
2023-01-29T19:19:51.422Z,77.92
2023-01-29T19:22:20.122Z,78.23
2023-01-29T19:24:49.183Z,78.06
2023-01-29T19:27:21.618Z,78.35
2023-01-29T19:29:51.318Z,78.28
2023-01-29T19:32:19.864Z,78.15
2023-01-29T19:34:50.036Z,78.18
2023-01-29T19:37:19.863Z,78.23
2023-01-29T19:39:48.408Z,78.28
2023-01-29T19:42:18.153Z,78.26
2023-01-29T19:44:47.109Z,78.42
2023-01-29T19:47:15.993Z,78.37
2023-01-29T19:49:45.361Z,78.15
2023-01-29T19:52:49.812Z,78.31
2023-01-29T19:55:21.364Z,78.09
2023-01-29T19:57:54.443Z,78.21
2023-01-29T20:00:23.798Z,78.20
2023-01-29T20:02:53.682Z,78.03
2023-01-29T20:05:24.319Z,78.12
2023-01-29T20:07:53.951Z,77.87
2023-01-29T20:10:24.981Z,78.04
2023-01-29T20:12:54.231Z,78.09
2023-01-29T20:15:23.307Z,77.91
2023-01-29T20:17:51.903Z,78.07
2023-01-29T20:20:21.162Z,78.05
2023-01-29T20:22:51.700Z,78.10
2023-01-29T20:25:20.933Z,77.96
2023-01-29T20:27:52.597Z,78.12
2023-01-29T20:30:23.974Z,77.75
2023-01-29T20:32:56.229Z,77.95
2023-01-29T20:35:25.910Z,78.07
2023-01-29T20:37:56.127Z,78.17
2023-01-29T20:40:25.892Z,77.89
2023-01-29T20:42:55.126Z,77.77
2023-01-29T20:45:24.109Z,77.84
2023-01-29T20:47:53.056Z,78.05
2023-01-29T20:50:21.838Z,78.09
2023-01-29T20:52:54.167Z,78.05
2023-01-29T20:55:23.656Z,78.10
2023-01-29T20:58:06.447Z,78.04
2023-01-29T21:00:35.863Z,78.18
2023-01-29T21:03:05.022Z,77.99
2023-01-29T21:05:36.059Z,77.76
2023-01-29T21:08:06.576Z,78.02
2023-01-29T21:10:35.096Z,77.87
2023-01-29T21:13:04.915Z,77.82
2023-01-29T21:15:34.352Z,77.81
2023-01-29T21:18:04.745Z,77.92
2023-01-29T21:20:33.396Z,78.08
2023-01-29T21:23:06.616Z,78.27
2023-01-29T21:25:35.624Z,78.24
2023-01-29T21:28:06.034Z,77.94
2023-01-29T21:30:34.775Z,78.05
2023-01-29T21:33:05.540Z,78.09
2023-01-29T21:35:37.127Z,77.99
2023-01-29T21:38:06.201Z,78.04
2023-01-29T21:40:34.900Z,77.74
2023-01-29T21:43:14.195Z,77.85
2023-01-29T21:45:43.428Z,77.91
2023-01-29T21:48:12.709Z,77.88
2023-01-29T21:50:41.476Z,77.72
2023-01-29T21:53:10.425Z,77.60
2023-01-29T21:55:39.921Z,77.72
2023-01-29T21:58:08.805Z,77.90
2023-01-29T22:00:37.620Z,77.78
2023-01-29T22:03:07.058Z,77.70
2023-01-29T22:05:36.046Z,77.67
2023-01-29T22:08:05.168Z,77.64
2023-01-29T22:10:37.074Z,77.71
2023-01-29T22:13:06.013Z,77.77
2023-01-29T22:15:35.156Z,77.78
2023-01-29T22:18:04.225Z,77.73
2023-01-29T22:20:33.234Z,77.98
2023-01-29T22:23:02.495Z,77.92
2023-01-29T22:25:32.976Z,77.60
2023-01-29T22:28:01.929Z,77.59
2023-01-29T22:30:30.921Z,77.73
2023-01-29T22:32:59.588Z,77.59
2023-01-29T22:35:28.699Z,77.62
2023-01-29T22:37:57.528Z,77.38
2023-01-29T22:40:27.109Z,77.57
2023-01-29T22:42:55.843Z,77.70
2023-01-29T22:45:24.610Z,77.80
2023-01-29T22:47:53.398Z,77.71
2023-01-29T22:50:22.466Z,77.67
2023-01-29T22:52:54.201Z,77.53
2023-01-29T22:55:23.644Z,77.69
2023-01-29T22:57:53.675Z,77.75
2023-01-29T23:00:22.829Z,77.66
2023-01-29T23:02:52.239Z,77.62
2023-01-29T23:05:21.045Z,77.38
2023-01-29T23:07:49.935Z,77.76
2023-01-29T23:10:19.291Z,77.42
2023-01-29T23:12:49.378Z,77.36
2023-01-29T23:15:18.055Z,77.53
2023-01-29T23:17:47.343Z,77.15
2023-01-29T23:20:16.398Z,77.37
2023-01-29T23:22:45.513Z,77.40
2023-01-29T23:25:14.972Z,77.34
2023-01-29T23:27:43.597Z,77.33
2023-01-29T23:30:12.658Z,77.16
2023-01-29T23:32:41.776Z,77.14
2023-01-29T23:35:10.550Z,77.22
2023-01-29T23:37:39.302Z,77.02
2023-01-29T23:40:08.820Z,77.10
2023-01-29T23:42:37.413Z,77.24
2023-01-29T23:45:06.769Z,77.16
2023-01-29T23:47:35.919Z,77.41
2023-01-29T23:50:04.685Z,77.31
2023-01-29T23:52:33.524Z,77.10
2023-01-29T23:55:02.434Z,77.28
2023-01-29T23:57:31.024Z,77.21
2023-01-29T23:59:59.727Z,77.17
